sensor_id;sensor_type;location;lat;lon;timestamp;pressure;altitude;pressure_sealevel;temperature;humidity
10462;BME280;5278;42.656;23.374;2023-08-06T00:02:15;93545.41;;;21.82;95.58
10462;BME280;5278;42.656;23.374;2023-08-06T00:04:43;93555.19;;;21.87;95.02
10462;BME280;5278;42.656;23.374;2023-08-06T00:07:13;93562.03;;;21.93;94.28
10462;BME280;5278;42.656;23.374;2023-08-06T00:09:39;93532.94;;;21.98;94.16
10462;BME280;5278;42.656;23.374;2023-08-06T00:12:07;93539.59;;;21.96;95.46
10462;BME280;5278;42.656;23.374;2023-08-06T00:14:34;93566.28;;;21.99;96.20
10462;BME280;5278;42.656;23.374;2023-08-06T00:17:01;93527.72;;;21.78;96.70
10462;BME280;5278;42.656;23.374;2023-08-06T00:19:28;93536.41;;;21.94;96.61
10462;BME280;5278;42.656;23.374;2023-08-06T00:21:56;93540.66;;;21.84;97.13
10462;BME280;5278;42.656;23.374;2023-08-06T00:24:24;93542.00;;;21.77;98.22
10462;BME280;5278;42.656;23.374;2023-08-06T00:26:51;93538.00;;;21.84;98.03
10462;BME280;5278;42.656;23.374;2023-08-06T00:29:18;93531.91;;;21.84;96.05
10462;BME280;5278;42.656;23.374;2023-08-06T00:31:45;93526.06;;;21.92;94.88
10462;BME280;5278;42.656;23.374;2023-08-06T00:34:13;93519.22;;;21.86;95.48
10462;BME280;5278;42.656;23.374;2023-08-06T00:36:40;93526.88;;;21.87;96.02
10462;BME280;5278;42.656;23.374;2023-08-06T00:39:07;93520.53;;;21.94;96.29
10462;BME280;5278;42.656;23.374;2023-08-06T00:41:37;93481.72;;;21.74;96.94
10462;BME280;5278;42.656;23.374;2023-08-06T00:44:04;93516.28;;;21.92;95.24
10462;BME280;5278;42.656;23.374;2023-08-06T00:46:34;93490.69;;;21.73;95.56
10462;BME280;5278;42.656;23.374;2023-08-06T00:49:02;93519.47;;;21.89;95.62
10462;BME280;5278;42.656;23.374;2023-08-06T00:51:29;93504.91;;;21.97;96.04
10462;BME280;5278;42.656;23.374;2023-08-06T00:53:56;93503.84;;;21.98;96.23
10462;BME280;5278;42.656;23.374;2023-08-06T00:56:22;93513.13;;;21.96;96.56
10462;BME280;5278;42.656;23.374;2023-08-06T00:58:52;93504.41;;;21.95;96.49
10462;BME280;5278;42.656;23.374;2023-08-06T01:01:19;93499.09;;;22.00;96.13
10462;BME280;5278;42.656;23.374;2023-08-06T01:03:46;93483.97;;;22.06;96.17
10462;BME280;5278;42.656;23.374;2023-08-06T01:06:19;93476.03;;;22.06;96.35
10462;BME280;5278;42.656;23.374;2023-08-06T01:08:59;93478.41;;;22.02;96.75
10462;BME280;5278;42.656;23.374;2023-08-06T01:11:33;93465.78;;;21.89;98.32
10462;BME280;5278;42.656;23.374;2023-08-06T01:14:18;93465.25;;;21.87;96.02
10462;BME280;5278;42.656;23.374;2023-08-06T01:16:50;93473.19;;;21.87;93.94
10462;BME280;5278;42.656;23.374;2023-08-06T01:19:18;93485.09;;;21.95;94.70
10462;BME280;5278;42.656;23.374;2023-08-06T01:21:46;93462.56;;;21.92;95.35
10462;BME280;5278;42.656;23.374;2023-08-06T01:24:15;93447.78;;;21.91;96.28
10462;BME280;5278;42.656;23.374;2023-08-06T01:29:16;93453.59;;;21.88;97.69
10462;BME280;5278;42.656;23.374;2023-08-06T01:31:48;93448.63;;;21.81;99.00
10462;BME280;5278;42.656;23.374;2023-08-06T01:34:21;93447.56;;;21.77;99.79
10462;BME280;5278;42.656;23.374;2023-08-06T01:36:51;93443.63;;;21.75;99.04
10462;BME280;5278;42.656;23.374;2023-08-06T01:39:20;93446.50;;;21.83;98.57
10462;BME280;5278;42.656;23.374;2023-08-06T01:41:47;93443.81;;;21.88;98.84
10462;BME280;5278;42.656;23.374;2023-08-06T01:44:15;93444.06;;;21.97;98.30
10462;BME280;5278;42.656;23.374;2023-08-06T01:46:42;93445.63;;;21.98;98.47
10462;BME280;5278;42.656;23.374;2023-08-06T01:49:09;93436.09;;;22.02;98.37
10462;BME280;5278;42.656;23.374;2023-08-06T01:51:36;93432.38;;;22.03;97.86
10462;BME280;5278;42.656;23.374;2023-08-06T01:54:05;93446.44;;;21.99;98.44
10462;BME280;5278;42.656;23.374;2023-08-06T01:56:32;93443.75;;;22.04;98.01
10462;BME280;5278;42.656;23.374;2023-08-06T01:59:00;93445.59;;;22.03;98.72
10462;BME280;5278;42.656;23.374;2023-08-06T02:01:26;93441.09;;;22.09;98.29
10462;BME280;5278;42.656;23.374;2023-08-06T02:03:53;93441.13;;;22.04;98.11
10462;BME280;5278;42.656;23.374;2023-08-06T02:06:20;93435.06;;;21.98;97.62
10462;BME280;5278;42.656;23.374;2023-08-06T02:08:47;93435.25;;;22.07;97.67
10462;BME280;5278;42.656;23.374;2023-08-06T02:11:16;93417.84;;;22.01;97.33
10462;BME280;5278;42.656;23.374;2023-08-06T02:13:43;93415.72;;;22.03;97.71
10462;BME280;5278;42.656;23.374;2023-08-06T02:16:11;93432.34;;;22.08;97.99
10462;BME280;5278;42.656;23.374;2023-08-06T02:18:37;93431.31;;;22.04;97.65
10462;BME280;5278;42.656;23.374;2023-08-06T02:21:04;93434.00;;;21.99;98.34
10462;BME280;5278;42.656;23.374;2023-08-06T02:23:31;93445.63;;;21.93;99.18
10462;BME280;5278;42.656;23.374;2023-08-06T02:25:59;93445.13;;;21.91;99.80
10462;BME280;5278;42.656;23.374;2023-08-06T02:28:28;93450.47;;;21.86;99.98
10462;BME280;5278;42.656;23.374;2023-08-06T02:30:55;93459.47;;;21.80;100.00
10462;BME280;5278;42.656;23.374;2023-08-06T02:33:23;93456.28;;;21.83;100.00
10462;BME280;5278;42.656;23.374;2023-08-06T02:35:51;93417.69;;;21.77;100.00
10462;BME280;5278;42.656;23.374;2023-08-06T02:38:24;93429.91;;;21.68;100.00
10462;BME280;5278;42.656;23.374;2023-08-06T02:40:51;93472.22;;;21.63;100.00
10462;BME280;5278;42.656;23.374;2023-08-06T02:43:18;93458.00;;;21.54;100.00
10462;BME280;5278;42.656;23.374;2023-08-06T02:45:46;93489.94;;;21.67;100.00
10462;BME280;5278;42.656;23.374;2023-08-06T02:48:13;93487.81;;;21.69;100.00
10462;BME280;5278;42.656;23.374;2023-08-06T02:50:41;93484.41;;;21.64;100.00
10462;BME280;5278;42.656;23.374;2023-08-06T02:53:08;93438.75;;;21.43;100.00
10462;BME280;5278;42.656;23.374;2023-08-06T02:55:36;93450.56;;;21.66;100.00
10462;BME280;5278;42.656;23.374;2023-08-06T02:58:05;93369.09;;;21.03;100.00
10462;BME280;5278;42.656;23.374;2023-08-06T03:00:31;93426.78;;;21.61;100.00
10462;BME280;5278;42.656;23.374;2023-08-06T03:03:00;93433.91;;;21.65;100.00
10462;BME280;5278;42.656;23.374;2023-08-06T03:05:26;93434.16;;;21.64;100.00
10462;BME280;5278;42.656;23.374;2023-08-06T03:07:53;93429.41;;;21.66;100.00
10462;BME280;5278;42.656;23.374;2023-08-06T03:10:20;93409.88;;;21.57;99.94
10462;BME280;5278;42.656;23.374;2023-08-06T03:12:47;93392.94;;;21.58;100.00
10462;BME280;5278;42.656;23.374;2023-08-06T03:15:16;93390.63;;;21.51;100.00
10462;BME280;5278;42.656;23.374;2023-08-06T03:17:42;93405.69;;;21.51;100.00
10462;BME280;5278;42.656;23.374;2023-08-06T03:20:12;93415.44;;;21.55;100.00
10462;BME280;5278;42.656;23.374;2023-08-06T03:22:39;93406.72;;;21.50;100.00
10462;BME280;5278;42.656;23.374;2023-08-06T03:25:07;93405.47;;;21.37;100.00
10462;BME280;5278;42.656;23.374;2023-08-06T03:27:33;93411.28;;;21.39;100.00
10462;BME280;5278;42.656;23.374;2023-08-06T03:30:01;93441.69;;;21.41;100.00
10462;BME280;5278;42.656;23.374;2023-08-06T03:32:28;93464.34;;;21.47;100.00
10462;BME280;5278;42.656;23.374;2023-08-06T03:34:54;93449.56;;;21.52;100.00
10462;BME280;5278;42.656;23.374;2023-08-06T03:37:23;93450.88;;;21.54;100.00
10462;BME280;5278;42.656;23.374;2023-08-06T03:39:50;93446.38;;;21.50;100.00
10462;BME280;5278;42.656;23.374;2023-08-06T03:42:17;93429.19;;;21.52;100.00
10462;BME280;5278;42.656;23.374;2023-08-06T03:44:44;93423.38;;;21.50;100.00
10462;BME280;5278;42.656;23.374;2023-08-06T03:47:11;93439.53;;;21.43;100.00
10462;BME280;5278;42.656;23.374;2023-08-06T03:49:38;93455.72;;;21.32;100.00
10462;BME280;5278;42.656;23.374;2023-08-06T03:52:05;93466.28;;;21.32;100.00
10462;BME280;5278;42.656;23.374;2023-08-06T03:54:34;93462.56;;;21.28;100.00
10462;BME280;5278;42.656;23.374;2023-08-06T03:57:01;93464.44;;;21.22;100.00
10462;BME280;5278;42.656;23.374;2023-08-06T03:59:28;93457.06;;;21.19;100.00
10462;BME280;5278;42.656;23.374;2023-08-06T04:01:55;93466.03;;;21.23;100.00
10462;BME280;5278;42.656;23.374;2023-08-06T04:04:21;93492.19;;;21.25;100.00
10462;BME280;5278;42.656;23.374;2023-08-06T04:06:49;93498.28;;;21.20;100.00
10462;BME280;5278;42.656;23.374;2023-08-06T04:09:15;93503.00;;;21.13;100.00
10462;BME280;5278;42.656;23.374;2023-08-06T04:11:46;93490.84;;;21.12;100.00
10462;BME280;5278;42.656;23.374;2023-08-06T04:14:14;93475.78;;;21.13;100.00
10462;BME280;5278;42.656;23.374;2023-08-06T04:16:40;93463.38;;;21.08;100.00
10462;BME280;5278;42.656;23.374;2023-08-06T04:19:08;93442.28;;;20.93;100.00
10462;BME280;5278;42.656;23.374;2023-08-06T04:21:35;93370.03;;;20.48;100.00
10462;BME280;5278;42.656;23.374;2023-08-06T04:24:03;93441.19;;;21.09;100.00
10462;BME280;5278;42.656;23.374;2023-08-06T04:26:30;93445.44;;;21.25;100.00
10462;BME280;5278;42.656;23.374;2023-08-06T04:28:59;93448.81;;;21.41;100.00
10462;BME280;5278;42.656;23.374;2023-08-06T04:31:26;93447.97;;;21.56;100.00
10462;BME280;5278;42.656;23.374;2023-08-06T04:33:53;93452.66;;;21.69;100.00
10462;BME280;5278;42.656;23.374;2023-08-06T04:36:20;93443.56;;;21.85;100.00
10462;BME280;5278;42.656;23.374;2023-08-06T04:38:47;93444.59;;;21.94;100.00
10462;BME280;5278;42.656;23.374;2023-08-06T04:41:14;93437.19;;;21.96;100.00
10462;BME280;5278;42.656;23.374;2023-08-06T04:43:41;93419.16;;;22.03;100.00
10462;BME280;5278;42.656;23.374;2023-08-06T04:46:09;93405.84;;;22.13;100.00
10462;BME280;5278;42.656;23.374;2023-08-06T04:48:37;93397.63;;;22.20;100.00
10462;BME280;5278;42.656;23.374;2023-08-06T04:51:04;93397.53;;;22.30;100.00
10462;BME280;5278;42.656;23.374;2023-08-06T04:53:31;93388.19;;;22.38;100.00
10462;BME280;5278;42.656;23.374;2023-08-06T04:55:58;93391.81;;;22.47;100.00
10462;BME280;5278;42.656;23.374;2023-08-06T04:58:25;93380.13;;;22.53;99.47
10462;BME280;5278;42.656;23.374;2023-08-06T05:00:53;93383.75;;;22.62;98.73
10462;BME280;5278;42.656;23.374;2023-08-06T05:03:22;93386.06;;;22.73;99.29
10462;BME280;5278;42.656;23.374;2023-08-06T05:05:49;93385.09;;;22.88;98.08
10462;BME280;5278;42.656;23.374;2023-08-06T05:08:16;93378.41;;;22.96;98.13
10462;BME280;5278;42.656;23.374;2023-08-06T05:10:44;93379.22;;;22.96;97.81
10462;BME280;5278;42.656;23.374;2023-08-06T05:13:11;93395.75;;;23.07;96.72
10462;BME280;5278;42.656;23.374;2023-08-06T05:15:38;93396.28;;;23.33;95.48
10462;BME280;5278;42.656;23.374;2023-08-06T05:18:07;93406.72;;;23.48;95.11
10462;BME280;5278;42.656;23.374;2023-08-06T05:20:37;93411.53;;;23.46;93.54
10462;BME280;5278;42.656;23.374;2023-08-06T05:23:05;93406.72;;;23.48;93.19
10462;BME280;5278;42.656;23.374;2023-08-06T05:25:33;93388.09;;;23.53;93.01
10462;BME280;5278;42.656;23.374;2023-08-06T05:28:01;93384.16;;;23.50;93.34
10462;BME280;5278;42.656;23.374;2023-08-06T05:30:28;93387.88;;;23.49;91.70
10462;BME280;5278;42.656;23.374;2023-08-06T05:32:55;93391.03;;;23.51;92.45
10462;BME280;5278;42.656;23.374;2023-08-06T05:35:22;93391.47;;;23.58;92.50
10462;BME280;5278;42.656;23.374;2023-08-06T05:37:51;93392.22;;;23.83;90.91
10462;BME280;5278;42.656;23.374;2023-08-06T05:40:18;93384.88;;;24.31;89.70
10462;BME280;5278;42.656;23.374;2023-08-06T05:42:45;93373.56;;;24.90;87.40
10462;BME280;5278;42.656;23.374;2023-08-06T05:45:12;93366.47;;;25.40;83.67
10462;BME280;5278;42.656;23.374;2023-08-06T05:47:39;93371.72;;;25.95;82.19
10462;BME280;5278;42.656;23.374;2023-08-06T05:50:07;93366.66;;;26.74;77.90
10462;BME280;5278;42.656;23.374;2023-08-06T05:52:35;93371.75;;;27.63;74.96
10462;BME280;5278;42.656;23.374;2023-08-06T05:55:03;93375.56;;;28.56;70.62
10462;BME280;5278;42.656;23.374;2023-08-06T05:57:31;93369.53;;;28.94;66.74
10462;BME280;5278;42.656;23.374;2023-08-06T05:59:58;93369.84;;;29.30;65.30
10462;BME280;5278;42.656;23.374;2023-08-06T06:02:26;93372.19;;;29.70;62.92
10462;BME280;5278;42.656;23.374;2023-08-06T06:04:53;93297.00;;;29.54;57.22
10462;BME280;5278;42.656;23.374;2023-08-06T06:07:20;93372.91;;;30.29;55.55
10462;BME280;5278;42.656;23.374;2023-08-06T06:09:46;93388.97;;;30.58;53.50
10462;BME280;5278;42.656;23.374;2023-08-06T06:12:15;93380.69;;;30.96;51.64
10462;BME280;5278;42.656;23.374;2023-08-06T06:14:42;93392.03;;;31.14;50.13
10462;BME280;5278;42.656;23.374;2023-08-06T06:17:10;93399.03;;;31.51;47.90
10462;BME280;5278;42.656;23.374;2023-08-06T06:19:37;93407.13;;;31.88;47.40
10462;BME280;5278;42.656;23.374;2023-08-06T06:22:04;93409.56;;;31.81;47.78
10462;BME280;5278;42.656;23.374;2023-08-06T06:24:31;93415.06;;;31.72;48.32
10462;BME280;5278;42.656;23.374;2023-08-06T06:26:58;93357.47;;;30.67;49.32
10462;BME280;5278;42.656;23.374;2023-08-06T06:29:29;93422.91;;;31.08;49.66
10462;BME280;5278;42.656;23.374;2023-08-06T06:31:56;93423.81;;;31.12;49.44
10462;BME280;5278;42.656;23.374;2023-08-06T06:34:23;93429.50;;;30.77;50.02
10462;BME280;5278;42.656;23.374;2023-08-06T06:36:50;93437.94;;;30.26;51.32
10462;BME280;5278;42.656;23.374;2023-08-06T06:39:18;93424.84;;;29.66;53.19
10462;BME280;5278;42.656;23.374;2023-08-06T06:41:46;93417.03;;;29.05;54.39
10462;BME280;5278;42.656;23.374;2023-08-06T06:44:13;93420.72;;;28.75;55.26
10462;BME280;5278;42.656;23.374;2023-08-06T06:46:41;93444.44;;;28.51;56.78
10462;BME280;5278;42.656;23.374;2023-08-06T06:49:08;93443.03;;;28.19;58.17
10462;BME280;5278;42.656;23.374;2023-08-06T06:51:35;93446.16;;;28.21;59.55
10462;BME280;5278;42.656;23.374;2023-08-06T06:54:02;93438.81;;;28.78;57.45
10462;BME280;5278;42.656;23.374;2023-08-06T06:56:30;93442.50;;;29.12;55.70
10462;BME280;5278;42.656;23.374;2023-08-06T06:58:56;93463.84;;;29.46;54.54
10462;BME280;5278;42.656;23.374;2023-08-06T07:01:23;93456.94;;;30.12;52.78
10462;BME280;5278;42.656;23.374;2023-08-06T07:03:54;93452.19;;;30.18;51.00
10462;BME280;5278;42.656;23.374;2023-08-06T07:06:20;93458.75;;;30.70;49.79
10462;BME280;5278;42.656;23.374;2023-08-06T07:08:48;93465.50;;;31.42;47.96
10462;BME280;5278;42.656;23.374;2023-08-06T07:11:15;93461.75;;;32.04;45.30
10462;BME280;5278;42.656;23.374;2023-08-06T07:13:42;93465.22;;;32.04;43.17
10462;BME280;5278;42.656;23.374;2023-08-06T07:16:09;93468.59;;;32.26;41.67
10462;BME280;5278;42.656;23.374;2023-08-06T07:18:36;93455.06;;;32.74;40.93
10462;BME280;5278;42.656;23.374;2023-08-06T07:21:04;93474.78;;;33.06;40.41
10462;BME280;5278;42.656;23.374;2023-08-06T07:23:32;93470.28;;;33.10;39.90
10462;BME280;5278;42.656;23.374;2023-08-06T07:26:00;93478.28;;;33.07;40.02
10462;BME280;5278;42.656;23.374;2023-08-06T07:28:28;93473.22;;;33.05;38.94
10462;BME280;5278;42.656;23.374;2023-08-06T07:30:55;93483.13;;;33.29;38.23
10462;BME280;5278;42.656;23.374;2023-08-06T07:33:22;93477.59;;;33.53;37.60
10462;BME280;5278;42.656;23.374;2023-08-06T07:35:49;93481.38;;;33.96;36.74
10462;BME280;5278;42.656;23.374;2023-08-06T07:38:18;93476.03;;;34.46;35.70
10462;BME280;5278;42.656;23.374;2023-08-06T07:40:46;93477.22;;;35.03;34.58
10462;BME280;5278;42.656;23.374;2023-08-06T07:43:13;93482.31;;;35.47;32.85
10462;BME280;5278;42.656;23.374;2023-08-06T07:45:40;93476.31;;;35.76;32.56
10462;BME280;5278;42.656;23.374;2023-08-06T07:48:07;93475.97;;;36.04;32.31
10462;BME280;5278;42.656;23.374;2023-08-06T07:50:34;93481.44;;;36.30;31.35
10462;BME280;5278;42.656;23.374;2023-08-06T07:53:01;93471.78;;;36.85;30.93
10462;BME280;5278;42.656;23.374;2023-08-06T07:55:30;93467.69;;;37.02;30.53
10462;BME280;5278;42.656;23.374;2023-08-06T07:57:57;93468.59;;;37.46;30.30
10462;BME280;5278;42.656;23.374;2023-08-06T08:00:23;93466.31;;;37.85;28.99
10462;BME280;5278;42.656;23.374;2023-08-06T08:02:50;93466.19;;;38.15;28.01
10462;BME280;5278;42.656;23.374;2023-08-06T08:05:18;93465.41;;;38.15;27.67
10462;BME280;5278;42.656;23.374;2023-08-06T08:07:45;93459.78;;;37.97;27.79
10462;BME280;5278;42.656;23.374;2023-08-06T08:10:12;93457.63;;;38.13;28.08
10462;BME280;5278;42.656;23.374;2023-08-06T08:12:40;93456.63;;;38.36;28.13
10462;BME280;5278;42.656;23.374;2023-08-06T08:15:08;93468.47;;;38.71;28.06
10462;BME280;5278;42.656;23.374;2023-08-06T08:17:35;93453.84;;;38.25;27.42
10462;BME280;5278;42.656;23.374;2023-08-06T08:20:03;93467.34;;;37.70;28.71
10462;BME280;5278;42.656;23.374;2023-08-06T08:22:31;93465.38;;;37.34;30.17
10462;BME280;5278;42.656;23.374;2023-08-06T08:24:58;93471.63;;;36.75;30.22
10462;BME280;5278;42.656;23.374;2023-08-06T08:27:25;93481.69;;;35.99;31.47
10462;BME280;5278;42.656;23.374;2023-08-06T08:29:54;93470.41;;;35.70;31.64
10462;BME280;5278;42.656;23.374;2023-08-06T08:32:21;93472.38;;;35.96;30.35
10462;BME280;5278;42.656;23.374;2023-08-06T08:34:48;93468.94;;;36.75;29.39
10462;BME280;5278;42.656;23.374;2023-08-06T08:37:14;93471.44;;;37.54;28.61
10462;BME280;5278;42.656;23.374;2023-08-06T08:39:41;93482.00;;;38.57;27.51
10462;BME280;5278;42.656;23.374;2023-08-06T08:42:09;93463.69;;;39.23;26.05
10462;BME280;5278;42.656;23.374;2023-08-06T08:44:37;93472.06;;;40.19;25.14
10462;BME280;5278;42.656;23.374;2023-08-06T08:47:06;93450.59;;;40.56;23.94
10462;BME280;5278;42.656;23.374;2023-08-06T08:49:35;93464.50;;;41.08;23.84
10462;BME280;5278;42.656;23.374;2023-08-06T08:52:03;93456.94;;;41.40;23.70
10462;BME280;5278;42.656;23.374;2023-08-06T08:54:32;93456.09;;;41.57;24.02
10462;BME280;5278;42.656;23.374;2023-08-06T08:57:00;93390.22;;;41.52;24.04
10462;BME280;5278;42.656;23.374;2023-08-06T08:59:27;93455.03;;;42.47;22.96
10462;BME280;5278;42.656;23.374;2023-08-06T09:01:56;93451.25;;;43.09;22.38
10462;BME280;5278;42.656;23.374;2023-08-06T09:04:26;93452.75;;;43.48;22.25
10462;BME280;5278;42.656;23.374;2023-08-06T09:06:58;93442.63;;;43.71;21.69
10462;BME280;5278;42.656;23.374;2023-08-06T09:09:26;93447.84;;;43.89;21.56
10462;BME280;5278;42.656;23.374;2023-08-06T09:11:55;93416.06;;;44.18;21.14
10462;BME280;5278;42.656;23.374;2023-08-06T09:14:26;93433.19;;;44.69;20.43
10462;BME280;5278;42.656;23.374;2023-08-06T09:16:53;93428.19;;;45.07;20.31
10462;BME280;5278;42.656;23.374;2023-08-06T09:19:20;93433.81;;;44.57;20.75
10462;BME280;5278;42.656;23.374;2023-08-06T09:21:51;93436.75;;;43.73;21.61
10462;BME280;5278;42.656;23.374;2023-08-06T09:24:18;93432.50;;;43.95;21.50
10462;BME280;5278;42.656;23.374;2023-08-06T09:26:45;93431.59;;;44.29;21.09
10462;BME280;5278;42.656;23.374;2023-08-06T09:29:14;93421.75;;;44.74;20.35
10462;BME280;5278;42.656;23.374;2023-08-06T09:31:42;93418.84;;;44.15;20.97
10462;BME280;5278;42.656;23.374;2023-08-06T09:34:11;93420.00;;;43.07;22.13
10462;BME280;5278;42.656;23.374;2023-08-06T09:36:42;93426.63;;;41.90;23.21
10462;BME280;5278;42.656;23.374;2023-08-06T09:39:17;93409.94;;;41.01;24.19
10462;BME280;5278;42.656;23.374;2023-08-06T09:41:45;93402.06;;;41.24;24.20
10462;BME280;5278;42.656;23.374;2023-08-06T09:44:16;93403.63;;;41.87;23.36
10462;BME280;5278;42.656;23.374;2023-08-06T09:46:48;93409.66;;;41.61;22.60
10462;BME280;5278;42.656;23.374;2023-08-06T09:49:15;93405.00;;;40.60;22.83
10462;BME280;5278;42.656;23.374;2023-08-06T09:51:42;93414.81;;;39.55;23.18
10462;BME280;5278;42.656;23.374;2023-08-06T09:54:12;93420.28;;;38.54;23.93
10462;BME280;5278;42.656;23.374;2023-08-06T09:56:40;93421.47;;;37.58;25.00
10462;BME280;5278;42.656;23.374;2023-08-06T09:59:09;93417.31;;;36.64;26.97
10462;BME280;5278;42.656;23.374;2023-08-06T10:01:37;93419.63;;;36.09;27.58
10462;BME280;5278;42.656;23.374;2023-08-06T10:04:06;93427.00;;;35.40;28.52
10462;BME280;5278;42.656;23.374;2023-08-06T10:06:35;93424.81;;;35.08;29.46
10462;BME280;5278;42.656;23.374;2023-08-06T10:09:03;93420.50;;;34.84;29.13
10462;BME280;5278;42.656;23.374;2023-08-06T10:11:30;93428.50;;;34.61;29.51
10462;BME280;5278;42.656;23.374;2023-08-06T10:14:03;93428.59;;;34.30;30.22
10462;BME280;5278;42.656;23.374;2023-08-06T10:16:32;93438.03;;;34.04;30.78
10462;BME280;5278;42.656;23.374;2023-08-06T10:19:01;93431.78;;;34.51;30.97
10462;BME280;5278;42.656;23.374;2023-08-06T10:21:30;93430.63;;;35.29;29.33
10462;BME280;5278;42.656;23.374;2023-08-06T10:23:58;93416.66;;;35.46;29.80
10462;BME280;5278;42.656;23.374;2023-08-06T10:26:30;93439.59;;;35.14;30.04
10462;BME280;5278;42.656;23.374;2023-08-06T10:28:59;93435.03;;;34.60;30.80
10462;BME280;5278;42.656;23.374;2023-08-06T10:31:58;93434.84;;;34.34;30.70
10462;BME280;5278;42.656;23.374;2023-08-06T10:34:53;93428.91;;;34.44;31.19
10462;BME280;5278;42.656;23.374;2023-08-06T10:37:21;93430.78;;;34.08;30.73
10462;BME280;5278;42.656;23.374;2023-08-06T10:39:49;93442.13;;;33.51;30.75
10462;BME280;5278;42.656;23.374;2023-08-06T10:42:21;93446.78;;;32.95;31.62
10462;BME280;5278;42.656;23.374;2023-08-06T10:45:18;93453.88;;;32.47;32.86
10462;BME280;5278;42.656;23.374;2023-08-06T10:47:46;93454.94;;;32.07;34.71
10462;BME280;5278;42.656;23.374;2023-08-06T10:50:14;93473.31;;;31.68;36.41
10462;BME280;5278;42.656;23.374;2023-08-06T10:52:42;93462.81;;;31.42;37.12
10462;BME280;5278;42.656;23.374;2023-08-06T10:55:10;93469.47;;;30.91;37.97
10462;BME280;5278;42.656;23.374;2023-08-06T10:57:36;93473.47;;;30.44;38.99
10462;BME280;5278;42.656;23.374;2023-08-06T11:00:05;93470.88;;;30.26;39.58
10462;BME280;5278;42.656;23.374;2023-08-06T11:02:35;93469.56;;;30.12;40.67
10462;BME280;5278;42.656;23.374;2023-08-06T11:05:06;93468.50;;;30.04;40.68
10462;BME280;5278;42.656;23.374;2023-08-06T11:07:34;93475.47;;;29.97;41.11
10462;BME280;5278;42.656;23.374;2023-08-06T11:10:02;93478.44;;;30.04;41.03
10462;BME280;5278;42.656;23.374;2023-08-06T11:12:30;93483.63;;;30.09;41.06
10462;BME280;5278;42.656;23.374;2023-08-06T11:14:59;93479.72;;;30.27;40.98
10462;BME280;5278;42.656;23.374;2023-08-06T11:17:27;93476.25;;;31.42;39.21
10462;BME280;5278;42.656;23.374;2023-08-06T11:19:58;93471.84;;;33.11;35.73
10462;BME280;5278;42.656;23.374;2023-08-06T11:22:26;93474.66;;;34.72;32.95
10462;BME280;5278;42.656;23.374;2023-08-06T11:24:53;93482.88;;;36.24;30.75
10462;BME280;5278;42.656;23.374;2023-08-06T11:27:21;93490.88;;;36.17;29.88
10462;BME280;5278;42.656;23.374;2023-08-06T11:29:48;93501.44;;;35.76;30.94
10462;BME280;5278;42.656;23.374;2023-08-06T11:32:14;93512.72;;;35.02;28.33
10462;BME280;5278;42.656;23.374;2023-08-06T11:34:43;93462.94;;;34.48;29.86
10462;BME280;5278;42.656;23.374;2023-08-06T11:37:13;93475.66;;;34.67;31.21
10462;BME280;5278;42.656;23.374;2023-08-06T11:39:46;93486.06;;;34.14;32.43
10462;BME280;5278;42.656;23.374;2023-08-06T11:42:14;93497.38;;;33.73;33.31
10462;BME280;5278;42.656;23.374;2023-08-06T11:44:41;93497.09;;;33.19;34.03
10462;BME280;5278;42.656;23.374;2023-08-06T11:47:13;93498.13;;;32.74;36.73
10462;BME280;5278;42.656;23.374;2023-08-06T11:49:45;93483.94;;;32.37;38.70
10462;BME280;5278;42.656;23.374;2023-08-06T11:52:17;93483.38;;;31.95;40.11
10462;BME280;5278;42.656;23.374;2023-08-06T11:54:46;93484.88;;;31.48;40.79
10462;BME280;5278;42.656;23.374;2023-08-06T11:57:15;93491.41;;;31.26;40.53
10462;BME280;5278;42.656;23.374;2023-08-06T11:59:44;93480.97;;;30.92;40.15
10462;BME280;5278;42.656;23.374;2023-08-06T12:02:11;93488.44;;;30.86;39.81
10462;BME280;5278;42.656;23.374;2023-08-06T12:05:00;93491.41;;;30.72;39.98
10462;BME280;5278;42.656;23.374;2023-08-06T12:07:32;93490.03;;;30.66;40.38
10462;BME280;5278;42.656;23.374;2023-08-06T12:09:59;93495.31;;;31.16;40.29
10462;BME280;5278;42.656;23.374;2023-08-06T12:12:26;93488.88;;;31.87;38.01
10462;BME280;5278;42.656;23.374;2023-08-06T12:14:54;93481.22;;;32.62;35.85
10462;BME280;5278;42.656;23.374;2023-08-06T12:17:21;93383.13;;;32.47;34.70
10462;BME280;5278;42.656;23.374;2023-08-06T12:19:48;93470.72;;;33.56;33.63
10462;BME280;5278;42.656;23.374;2023-08-06T12:22:16;93468.16;;;33.75;33.33
10462;BME280;5278;42.656;23.374;2023-08-06T12:24:46;93473.03;;;33.69;33.63
10462;BME280;5278;42.656;23.374;2023-08-06T12:27:13;93464.19;;;33.41;34.33
10462;BME280;5278;42.656;23.374;2023-08-06T12:29:42;93467.69;;;33.14;34.95
10462;BME280;5278;42.656;23.374;2023-08-06T12:32:09;93464.94;;;32.98;35.29
10462;BME280;5278;42.656;23.374;2023-08-06T12:34:37;93457.56;;;32.95;35.42
10462;BME280;5278;42.656;23.374;2023-08-06T12:37:05;93461.84;;;32.84;35.54
10462;BME280;5278;42.656;23.374;2023-08-06T12:39:32;93474.69;;;32.75;35.97
10462;BME280;5278;42.656;23.374;2023-08-06T12:42:01;93379.88;;;32.01;35.34
10462;BME280;5278;42.656;23.374;2023-08-06T12:44:28;93457.94;;;32.29;35.38
10462;BME280;5278;42.656;23.374;2023-08-06T12:46:55;93463.34;;;32.17;35.39
10462;BME280;5278;42.656;23.374;2023-08-06T12:49:24;93461.53;;;31.85;36.09
10462;BME280;5278;42.656;23.374;2023-08-06T12:51:52;93457.72;;;31.74;36.66
10462;BME280;5278;42.656;23.374;2023-08-06T12:54:20;93461.59;;;31.52;37.10
10462;BME280;5278;42.656;23.374;2023-08-06T12:56:48;93427.06;;;31.30;37.28
10462;BME280;5278;42.656;23.374;2023-08-06T12:59:18;93469.19;;;31.50;36.94
10462;BME280;5278;42.656;23.374;2023-08-06T13:01:45;93466.19;;;31.51;36.82
10462;BME280;5278;42.656;23.374;2023-08-06T13:04:13;93472.34;;;31.52;36.51
10462;BME280;5278;42.656;23.374;2023-08-06T13:06:41;93462.78;;;31.63;36.50